createdAt,value
2017-11-12T00:00:09.286Z,91.41
2017-11-12T00:02:36.760Z,91.37
2017-11-12T00:05:04.202Z,91.39
2017-11-12T00:07:31.668Z,92.57
2017-11-12T00:09:59.129Z,91.95
2017-11-12T00:12:26.610Z,91.83
2017-11-12T00:14:54.053Z,92.32
2017-11-12T00:17:21.520Z,92.83
2017-11-12T00:19:48.965Z,92.73
2017-11-12T00:22:16.428Z,91.88
2017-11-12T00:24:43.873Z,92.10
2017-11-12T00:27:11.365Z,92.52
2017-11-12T00:29:38.803Z,92.49
2017-11-12T00:32:06.266Z,92.23
2017-11-12T00:34:33.727Z,91.82
2017-11-12T00:37:01.215Z,91.42
2017-11-12T00:39:28.663Z,91.45
2017-11-12T00:41:56.121Z,91.49
2017-11-12T00:44:23.590Z,91.89
2017-11-12T00:46:51.027Z,91.93
2017-11-12T00:49:18.521Z,91.86
2017-11-12T00:51:46.020Z,92.67
2017-11-12T00:54:13.481Z,92.14
2017-11-12T00:56:40.950Z,92.33
2017-11-12T00:59:08.421Z,92.21
2017-11-12T01:01:35.948Z,91.69
2017-11-12T01:04:03.411Z,91.83
2017-11-12T01:06:30.856Z,91.53
2017-11-12T01:08:58.337Z,91.73
2017-11-12T01:11:25.876Z,92.32
2017-11-12T01:13:53.428Z,92.16
2017-11-12T01:16:20.882Z,92.42
2017-11-12T01:18:48.362Z,92.01
2017-11-12T01:21:15.862Z,92.42
2017-11-12T01:23:43.309Z,92.24
2017-11-12T01:26:10.828Z,91.91
2017-11-12T01:28:38.278Z,92.24
2017-11-12T01:31:05.843Z,91.95
2017-11-12T01:33:33.299Z,92.25
2017-11-12T01:36:00.766Z,92.34
2017-11-12T01:38:28.231Z,92.37
2017-11-12T01:40:55.697Z,92.19
2017-11-12T01:43:23.240Z,92.49
2017-11-12T01:45:50.718Z,92.64
2017-11-12T01:48:18.169Z,92.21
2017-11-12T01:50:45.660Z,92.54
2017-11-12T01:53:13.109Z,92.47
2017-11-12T01:55:40.570Z,92.46
2017-11-12T01:58:08.047Z,92.39
2017-11-12T02:00:35.499Z,92.37
2017-11-12T02:03:02.969Z,92.61
2017-11-12T02:05:30.414Z,92.44
2017-11-12T02:07:57.895Z,92.71
2017-11-12T02:10:25.341Z,92.52
2017-11-12T02:12:52.922Z,92.78
2017-11-12T02:15:20.379Z,92.68
2017-11-12T02:17:47.865Z,92.83
2017-11-12T02:20:15.318Z,92.87
2017-11-12T02:22:42.842Z,92.89
2017-11-12T02:25:10.334Z,93.00
2017-11-12T02:27:37.818Z,92.56
2017-11-12T02:30:05.290Z,92.60
2017-11-12T02:32:32.763Z,92.37
2017-11-12T02:35:00.234Z,92.34
2017-11-12T02:37:27.853Z,92.47
2017-11-12T02:39:55.370Z,93.20
2017-11-12T02:42:22.810Z,93.08
2017-11-12T02:44:50.363Z,93.05
2017-11-12T02:47:17.915Z,92.98
2017-11-12T02:49:45.467Z,92.44
2017-11-12T02:52:12.935Z,92.24
2017-11-12T02:54:40.496Z,92.67
2017-11-12T02:57:08.063Z,93.54
2017-11-12T02:59:35.630Z,92.50
2017-11-12T03:02:03.119Z,92.29
2017-11-12T03:04:30.587Z,92.87
2017-11-12T03:06:58.067Z,93.10
2017-11-12T03:09:25.536Z,92.77
2017-11-12T03:11:53.018Z,92.41
2017-11-12T03:14:20.555Z,91.86
2017-11-12T03:16:48.122Z,92.03
2017-11-12T03:19:15.579Z,92.16
2017-11-12T03:21:43.131Z,92.02
2017-11-12T03:24:10.592Z,92.16
2017-11-12T03:26:38.107Z,92.40
2017-11-12T03:29:05.565Z,92.48
2017-11-12T03:31:33.162Z,92.28
2017-11-12T03:34:00.613Z,92.21
2017-11-12T03:36:28.098Z,91.06
2017-11-12T03:38:55.605Z,91.73
2017-11-12T03:41:23.067Z,92.36
2017-11-12T03:43:50.537Z,92.35
2017-11-12T03:46:18.102Z,92.59
2017-11-12T03:48:45.579Z,92.25
2017-11-12T03:51:13.126Z,92.26
2017-11-12T03:53:40.608Z,92.22
2017-11-12T03:56:08.134Z,91.98
2017-11-12T03:58:35.618Z,92.31
2017-11-12T04:01:03.069Z,92.29
2017-11-12T04:03:30.537Z,92.08
2017-11-12T04:05:58.032Z,92.10
2017-11-12T04:08:25.625Z,92.61
2017-11-12T04:10:53.101Z,92.34
2017-11-12T04:13:20.553Z,92.43
2017-11-12T04:15:48.029Z,92.47
2017-11-12T04:18:15.477Z,92.71
2017-11-12T04:20:42.982Z,92.67
2017-11-12T04:23:10.441Z,92.61
2017-11-12T04:25:38.033Z,93.29
2017-11-12T04:28:05.583Z,92.42
2017-11-12T04:30:33.066Z,92.08
2017-11-12T04:33:00.525Z,91.69
2017-11-12T04:35:27.998Z,90.78
2017-11-12T04:37:55.457Z,91.75
2017-11-12T04:40:22.941Z,92.04
2017-11-12T04:42:50.392Z,92.17
2017-11-12T04:45:17.897Z,92.11
2017-11-12T04:47:45.383Z,92.29
2017-11-12T04:50:12.905Z,92.92
2017-11-12T04:52:40.463Z,93.29
2017-11-12T04:55:08.008Z,93.00
2017-11-12T04:57:35.484Z,92.88
2017-11-12T05:00:02.934Z,92.66
2017-11-12T05:02:30.486Z,92.39
2017-11-12T05:04:57.942Z,92.67
2017-11-12T05:07:25.418Z,92.99
2017-11-12T05:09:52.870Z,92.12
2017-11-12T05:12:20.344Z,92.08
2017-11-12T05:14:47.873Z,92.29
2017-11-12T05:17:15.351Z,92.44
2017-11-12T05:19:42.804Z,92.98
2017-11-12T05:22:10.298Z,92.47
2017-11-12T05:24:37.738Z,91.61
2017-11-12T05:27:05.210Z,91.46
2017-11-12T05:29:32.711Z,91.91
2017-11-12T05:32:00.228Z,92.69
2017-11-12T05:34:27.682Z,92.54
2017-11-12T05:36:55.138Z,92.99
2017-11-12T05:39:22.617Z,92.84
2017-11-12T05:41:50.090Z,93.96
2017-11-12T05:44:17.574Z,93.62
2017-11-12T05:46:45.038Z,93.47
2017-11-12T05:49:12.526Z,93.23
2017-11-12T05:51:39.972Z,93.21
2017-11-12T05:54:07.450Z,92.22
2017-11-12T05:56:34.903Z,92.47
2017-11-12T05:59:02.365Z,93.06
2017-11-12T06:01:29.819Z,92.76
2017-11-12T06:03:57.319Z,92.43
2017-11-12T06:06:24.784Z,92.70
2017-11-12T06:08:52.318Z,93.46
2017-11-12T06:11:19.773Z,94.43
2017-11-12T06:13:47.228Z,94.55
2017-11-12T06:16:14.790Z,94.62
2017-11-12T06:18:42.240Z,94.95
2017-11-12T06:21:09.712Z,94.65
2017-11-12T06:23:37.170Z,94.75
2017-11-12T06:26:04.666Z,95.17
2017-11-12T06:28:32.113Z,94.62
2017-11-12T06:30:59.632Z,94.06
2017-11-12T06:33:27.165Z,94.96
2017-11-12T06:35:54.641Z,95.54
2017-11-12T06:38:22.106Z,95.04
2017-11-12T06:40:49.575Z,94.79
2017-11-12T06:43:17.021Z,94.36
2017-11-12T06:45:44.494Z,93.57
2017-11-12T06:48:11.955Z,93.50
2017-11-12T06:50:39.446Z,93.00
2017-11-12T06:53:06.910Z,93.09
2017-11-12T06:55:34.408Z,93.13
2017-11-12T06:58:01.967Z,93.01
2017-11-12T07:00:29.418Z,93.19
2017-11-12T07:02:56.885Z,92.57
2017-11-12T07:05:24.447Z,92.67
2017-11-12T07:07:51.994Z,93.01
2017-11-12T07:10:19.549Z,93.04
2017-11-12T07:12:47.025Z,93.40
2017-11-12T07:15:14.483Z,93.17
2017-11-12T07:17:41.990Z,93.24
2017-11-12T07:20:09.464Z,93.06
2017-11-12T07:22:36.933Z,93.13
2017-11-12T07:25:04.425Z,93.07
2017-11-12T07:27:31.908Z,92.62
2017-11-12T07:29:59.394Z,92.79
2017-11-12T07:32:26.867Z,93.79
2017-11-12T07:34:54.358Z,94.25
2017-11-12T07:37:21.826Z,93.73
2017-11-12T07:39:49.308Z,94.22
2017-11-12T07:42:16.777Z,94.14
2017-11-12T07:44:44.283Z,94.08
2017-11-12T07:47:11.909Z,93.43
2017-11-12T07:49:39.470Z,92.88
2017-11-12T07:52:06.929Z,92.73
2017-11-12T07:54:34.453Z,92.67
2017-11-12T07:57:01.910Z,93.30
2017-11-12T07:59:29.381Z,94.04
2017-11-12T08:01:56.862Z,94.60
2017-11-12T08:04:24.423Z,94.84
2017-11-12T08:06:51.911Z,94.76
2017-11-12T08:09:19.442Z,94.62
2017-11-12T08:11:46.933Z,94.41
2017-11-12T08:14:14.393Z,93.58
2017-11-12T08:16:41.903Z,94.06
2017-11-12T08:19:09.371Z,93.92
2017-11-12T08:21:36.934Z,93.51
2017-11-12T08:24:04.388Z,93.83
2017-11-12T08:26:31.877Z,94.10
2017-11-12T08:28:59.369Z,93.95
2017-11-12T08:31:26.868Z,94.33
2017-11-12T08:33:54.409Z,94.72
2017-11-12T08:36:21.871Z,94.94
2017-11-12T08:38:49.362Z,95.34
2017-11-12T08:41:16.827Z,92.87
2017-11-12T08:43:44.327Z,92.97
2017-11-12T08:46:11.786Z,92.85
2017-11-12T08:48:39.269Z,93.76
2017-11-12T08:51:06.734Z,94.74
2017-11-12T08:53:34.211Z,94.80
2017-11-12T08:56:01.671Z,94.82
2017-11-12T08:58:29.193Z,94.92
2017-11-12T09:00:56.638Z,93.93
2017-11-12T09:03:24.121Z,93.37
2017-11-12T09:05:51.654Z,92.11
2017-11-12T09:08:19.143Z,91.47
2017-11-12T09:10:46.618Z,91.59
2017-11-12T09:13:14.109Z,92.15
2017-11-12T09:15:41.706Z,90.87
2017-11-12T09:18:09.233Z,88.35
2017-11-12T09:20:36.729Z,88.78
2017-11-12T09:23:04.820Z,87.88
2017-11-12T09:25:34.725Z,87.00
2017-11-12T09:28:04.527Z,87.80
2017-11-12T09:30:32.250Z,88.75
2017-11-12T09:32:59.705Z,88.22
2017-11-12T09:35:27.211Z,89.26
2017-11-12T09:37:54.666Z,88.46
2017-11-12T09:40:22.141Z,88.97
2017-11-12T09:42:49.599Z,89.25
2017-11-12T09:45:17.127Z,89.04
2017-11-12T09:47:44.578Z,89.39
2017-11-12T09:50:12.029Z,88.64
2017-11-12T09:52:39.504Z,89.54
2017-11-12T09:55:06.985Z,89.01
2017-11-12T09:57:34.473Z,89.04
2017-11-12T10:00:01.917Z,87.30
2017-11-12T10:02:29.401Z,88.30
2017-11-12T10:04:57.774Z,88.86
2017-11-12T10:07:25.254Z,87.24
2017-11-12T10:09:52.790Z,89.41
2017-11-12T10:12:20.303Z,89.13
2017-11-12T10:14:47.773Z,89.53
2017-11-12T10:17:15.390Z,89.60
2017-11-12T10:19:42.842Z,90.02
2017-11-12T10:22:10.375Z,90.61
2017-11-12T10:24:37.835Z,89.81
2017-11-12T10:27:05.371Z,89.43
2017-11-12T10:32:06.685Z,89.19
2017-11-12T10:34:34.201Z,88.02
2017-11-12T10:37:01.662Z,87.46
2017-11-12T10:39:29.224Z,88.83
2017-11-12T10:41:56.671Z,89.64
2017-11-12T10:44:24.242Z,89.39
2017-11-12T10:46:51.969Z,88.06
2017-11-12T10:49:19.461Z,88.46
2017-11-12T10:51:46.915Z,87.88
2017-11-12T10:54:14.402Z,87.50
2017-11-12T10:56:41.936Z,87.96
2017-11-12T10:59:09.414Z,86.21
2017-11-12T11:01:36.927Z,87.56
2017-11-12T11:04:04.547Z,87.06
2017-11-12T11:06:32.021Z,87.77
2017-11-12T11:08:59.482Z,88.96
2017-11-12T11:11:26.954Z,88.62
2017-11-12T11:13:54.403Z,88.16
2017-11-12T11:16:21.990Z,89.27
2017-11-12T11:18:49.438Z,89.00
2017-11-12T11:21:16.922Z,89.21
2017-11-12T11:23:44.498Z,88.90
2017-11-12T11:26:11.968Z,89.22
2017-11-12T11:28:39.424Z,89.24
2017-11-12T11:31:06.927Z,89.26
2017-11-12T11:33:34.385Z,89.47
2017-11-12T11:36:01.897Z,88.62
2017-11-12T11:38:30.561Z,89.69
2017-11-12T11:40:58.141Z,89.18
2017-11-12T11:43:25.650Z,88.00
2017-11-12T11:45:53.109Z,88.46
2017-11-12T11:48:20.674Z,87.70
2017-11-12T11:50:48.128Z,88.88
2017-11-12T11:53:15.601Z,88.49
2017-11-12T11:55:43.136Z,89.42
2017-11-12T11:58:10.606Z,88.18
2017-11-12T12:00:38.078Z,87.04
2017-11-12T12:03:05.541Z,89.04
2017-11-12T12:05:33.074Z,89.49
2017-11-12T12:08:00.537Z,86.50
2017-11-12T12:10:28.015Z,87.43
2017-11-12T12:12:56.541Z,88.88
2017-11-12T12:15:24.379Z,87.77
2017-11-12T12:17:51.858Z,88.45
2017-11-12T12:20:19.358Z,89.33
2017-11-12T12:22:46.810Z,86.92
2017-11-12T12:25:14.286Z,85.51
2017-11-12T12:27:41.814Z,85.09
2017-11-12T12:30:09.306Z,86.14
2017-11-12T12:32:36.756Z,86.56
2017-11-12T12:35:04.237Z,90.32
2017-11-12T12:37:31.715Z,88.87
2017-11-12T12:39:59.182Z,87.79
2017-11-12T12:42:26.637Z,88.19
2017-11-12T12:44:54.138Z,87.93
2017-11-12T12:47:21.685Z,87.82
2017-11-12T12:49:49.196Z,88.49
2017-11-12T12:52:16.723Z,88.46
2017-11-12T12:54:44.206Z,88.36
2017-11-12T12:57:11.707Z,88.81
2017-11-12T12:59:39.153Z,88.99
2017-11-12T13:02:06.633Z,87.65
2017-11-12T13:04:34.093Z,87.20
2017-11-12T13:07:01.569Z,87.96
2017-11-12T13:09:29.098Z,87.69
2017-11-12T13:11:56.574Z,87.78
2017-11-12T13:14:24.025Z,89.15
2017-11-12T13:16:51.499Z,88.76
2017-11-12T13:19:18.949Z,88.25
2017-11-12T13:21:46.419Z,87.65
2017-11-12T13:24:13.977Z,88.14
2017-11-12T13:26:41.446Z,87.88
2017-11-12T13:29:08.902Z,87.88
2017-11-12T13:31:36.395Z,88.36
2017-11-12T13:34:03.859Z,87.98
2017-11-12T13:36:31.387Z,87.08
2017-11-12T13:38:58.843Z,87.42
2017-11-12T13:41:26.472Z,86.95
2017-11-12T13:43:53.918Z,86.86
2017-11-12T13:46:21.382Z,87.13
2017-11-12T13:48:48.858Z,86.68
2017-11-12T13:51:16.366Z,86.87
2017-11-12T13:53:43.913Z,85.63
2017-11-12T13:56:11.412Z,85.57
2017-11-12T13:58:38.963Z,86.29
2017-11-12T14:01:06.444Z,85.76
2017-11-12T14:03:33.908Z,85.15
2017-11-12T14:06:01.362Z,85.67
2017-11-12T14:08:28.868Z,85.86
2017-11-12T14:10:56.330Z,85.57
2017-11-12T14:13:25.505Z,85.78
2017-11-12T14:15:52.954Z,85.05
2017-11-12T14:18:20.444Z,87.62
2017-11-12T14:20:47.967Z,88.32
2017-11-12T14:23:15.457Z,89.02
2017-11-12T14:25:43.011Z,86.52
2017-11-12T14:28:10.470Z,88.60
2017-11-12T14:30:37.937Z,88.09
2017-11-12T14:33:05.495Z,87.31
2017-11-12T14:35:32.976Z,88.79
2017-11-12T14:38:00.437Z,89.30
2017-11-12T14:40:27.930Z,89.20
2017-11-12T14:42:55.377Z,89.08
2017-11-12T14:45:23.576Z,89.38
2017-11-12T14:47:51.047Z,90.03
2017-11-12T14:50:18.535Z,89.24
2017-11-12T14:52:46.005Z,90.01
2017-11-12T14:55:13.478Z,90.12
2017-11-12T14:57:40.930Z,90.74
2017-11-12T15:00:08.419Z,90.44
2017-11-12T15:02:35.938Z,89.03
2017-11-12T15:05:03.403Z,88.93
2017-11-12T15:07:30.890Z,88.86
2017-11-12T15:09:58.473Z,89.46
2017-11-12T15:12:26.372Z,89.51
2017-11-12T15:14:53.862Z,89.15
2017-11-12T15:17:21.359Z,89.14
2017-11-12T15:19:48.825Z,88.65
2017-11-12T15:22:16.316Z,88.48
2017-11-12T15:24:43.796Z,88.64
2017-11-12T15:27:11.333Z,88.43
2017-11-12T15:29:38.827Z,88.75
2017-11-12T15:32:06.322Z,88.62
2017-11-12T15:34:33.771Z,88.14
2017-11-12T15:37:01.248Z,88.40
2017-11-12T15:39:28.750Z,88.79
2017-11-12T15:41:56.242Z,88.83
2017-11-12T15:44:24.841Z,88.51
2017-11-12T15:46:52.288Z,89.08
2017-11-12T15:49:19.763Z,89.11
2017-11-12T15:51:47.273Z,88.64
2017-11-12T15:54:14.749Z,88.70
2017-11-12T15:56:42.207Z,89.34
2017-11-12T15:59:09.687Z,89.49
2017-11-12T16:01:37.182Z,88.43
2017-11-12T16:04:04.649Z,89.21
2017-11-12T16:06:32.093Z,87.67
2017-11-12T16:08:59.566Z,88.44
2017-11-12T16:11:27.043Z,88.38
2017-11-12T16:13:54.527Z,88.46
2017-11-12T16:16:22.038Z,88.58
2017-11-12T16:18:49.605Z,88.48
2017-11-12T16:21:17.058Z,87.85
2017-11-12T16:23:44.534Z,88.57
2017-11-12T16:26:12.027Z,88.45
2017-11-12T16:28:39.509Z,88.04
2017-11-12T16:31:06.969Z,87.81
2017-11-12T16:33:34.438Z,87.44
2017-11-12T16:36:01.910Z,87.69
2017-11-12T16:38:29.370Z,88.11
2017-11-12T16:40:56.850Z,88.15
2017-11-12T16:43:24.311Z,88.34
2017-11-12T16:45:51.791Z,88.58
2017-11-12T16:48:19.283Z,89.26
2017-11-12T16:50:48.659Z,87.92
2017-11-12T16:53:16.139Z,88.12
2017-11-12T16:55:43.638Z,88.24
2017-11-12T16:58:11.143Z,87.97
2017-11-12T17:00:38.619Z,87.59
2017-11-12T17:03:06.074Z,87.66
2017-11-12T17:05:33.614Z,86.18
2017-11-12T17:08:01.068Z,87.23
2017-11-12T17:10:28.561Z,86.15
2017-11-12T17:12:56.078Z,86.74
2017-11-12T17:15:24.249Z,88.38
2017-11-12T17:17:51.723Z,88.04
2017-11-12T17:20:19.195Z,87.99
2017-11-12T17:22:46.745Z,87.49
2017-11-12T17:25:14.208Z,87.77
2017-11-12T17:27:41.697Z,88.32
2017-11-12T17:30:09.151Z,87.06
2017-11-12T17:32:36.666Z,87.83
2017-11-12T17:35:04.134Z,87.22
2017-11-12T17:37:31.616Z,87.35
2017-11-12T17:39:59.173Z,88.07
2017-11-12T17:42:26.672Z,88.31
2017-11-12T17:44:54.137Z,87.69
2017-11-12T17:47:21.706Z,88.05
2017-11-12T17:49:49.155Z,88.54
2017-11-12T17:52:16.601Z,87.44
2017-11-12T17:54:44.069Z,85.76
2017-11-12T17:57:11.527Z,86.34
2017-11-12T17:59:39.017Z,86.18
2017-11-12T18:02:06.471Z,86.00
2017-11-12T18:04:33.947Z,85.57
2017-11-12T18:07:01.422Z,86.02
2017-11-12T18:09:28.926Z,84.72
2017-11-12T18:11:56.465Z,84.92
2017-11-12T18:14:23.933Z,84.28
2017-11-12T18:16:51.419Z,84.79
2017-11-12T18:19:18.873Z,83.66
2017-11-12T18:21:46.410Z,83.78
2017-11-12T18:24:13.932Z,84.49
2017-11-12T18:26:41.419Z,85.38
2017-11-12T18:29:08.882Z,85.63
2017-11-12T18:31:36.427Z,85.74
2017-11-12T18:34:03.880Z,85.23
2017-11-12T18:36:31.804Z,85.75
2017-11-12T18:38:59.246Z,85.80
2017-11-12T18:41:26.830Z,85.09
2017-11-12T18:43:54.283Z,85.40
2017-11-12T18:46:21.763Z,85.10
2017-11-12T18:48:49.218Z,85.91
2017-11-12T18:51:18.106Z,85.99
2017-11-12T18:53:45.560Z,84.71
2017-11-12T18:56:13.021Z,85.77
2017-11-12T18:58:42.947Z,85.42
2017-11-12T19:04:18.898Z,86.11
2017-11-12T19:06:51.950Z,86.12
2017-11-12T19:09:21.411Z,86.27
2017-11-12T19:11:48.918Z,84.74
2017-11-12T19:14:16.398Z,86.15
2017-11-12T19:16:53.821Z,86.08
2017-11-12T19:19:24.266Z,86.39
2017-11-12T19:21:51.714Z,86.34
2017-11-12T19:24:24.863Z,88.09
2017-11-12T19:26:55.824Z,86.72
2017-11-12T19:29:23.298Z,88.30
2017-11-12T19:31:50.754Z,88.14
2017-11-12T19:34:18.331Z,86.89
2017-11-12T19:36:45.812Z,87.24
2017-11-12T19:39:13.285Z,86.66
2017-11-12T19:41:40.831Z,86.53
2017-11-12T19:44:08.321Z,86.24
2017-11-12T19:46:35.769Z,86.90
2017-11-12T19:49:03.264Z,86.81
2017-11-12T19:51:30.734Z,87.54
2017-11-12T19:53:58.226Z,86.80
2017-11-12T19:56:25.673Z,86.65
2017-11-12T19:58:53.163Z,87.30
2017-11-12T20:01:20.665Z,86.70
2017-11-12T20:03:48.133Z,87.13
2017-11-12T20:06:15.606Z,87.05
2017-11-12T20:08:43.067Z,87.96
2017-11-12T20:11:10.554Z,87.29
2017-11-12T20:13:38.047Z,87.51
2017-11-12T20:16:05.531Z,87.58
2017-11-12T20:18:32.988Z,87.49
2017-11-12T20:21:00.458Z,87.49
2017-11-12T20:23:27.914Z,88.04
2017-11-12T20:25:55.378Z,87.06
2017-11-12T20:28:22.854Z,87.55
2017-11-12T20:30:50.324Z,87.35
2017-11-12T20:33:17.877Z,87.69
2017-11-12T20:35:45.326Z,87.25
2017-11-12T20:38:12.899Z,87.29
2017-11-12T20:40:40.354Z,87.17
2017-11-12T20:43:07.865Z,86.83
2017-11-12T20:45:35.334Z,86.01
2017-11-12T20:48:02.797Z,86.48
2017-11-12T20:50:30.259Z,85.84
2017-11-12T20:52:57.759Z,86.17
2017-11-12T20:55:25.210Z,86.61
2017-11-12T20:57:52.671Z,87.40
2017-11-12T21:00:20.158Z,87.17
2017-11-12T21:02:47.690Z,86.93
2017-11-12T21:05:15.969Z,86.98
2017-11-12T21:07:43.422Z,86.91
2017-11-12T21:10:10.893Z,86.24
2017-11-12T21:12:38.350Z,85.89
2017-11-12T21:15:05.861Z,86.33
2017-11-12T21:17:33.308Z,86.58
2017-11-12T21:20:01.530Z,86.80
2017-11-12T21:22:30.766Z,86.35
2017-11-12T21:24:58.261Z,86.93
2017-11-12T21:27:26.098Z,86.75
2017-11-12T21:29:54.343Z,87.52
2017-11-12T21:32:21.805Z,85.85
2017-11-12T21:34:53.009Z,86.94
2017-11-12T21:37:30.399Z,85.65
2017-11-12T21:39:57.854Z,86.05
2017-11-12T21:42:25.329Z,87.28
2017-11-12T21:44:52.822Z,85.75
2017-11-12T21:47:20.299Z,86.05
2017-11-12T21:49:47.760Z,86.06
2017-11-12T21:52:15.228Z,86.73
2017-11-12T21:54:42.706Z,86.27
2017-11-12T21:57:10.250Z,86.35
2017-11-12T21:59:37.702Z,85.88
2017-11-12T22:02:05.198Z,85.77
2017-11-12T22:04:32.655Z,85.17
2017-11-12T22:07:00.155Z,85.38
2017-11-12T22:09:27.611Z,86.21
2017-11-12T22:11:55.060Z,86.41
2017-11-12T22:14:22.666Z,86.77
2017-11-12T22:16:50.134Z,86.51
2017-11-12T22:19:17.616Z,86.58
2017-11-12T22:21:45.074Z,86.65
2017-11-12T22:24:12.551Z,86.79
2017-11-12T22:26:40.023Z,86.79
2017-11-12T22:29:07.495Z,87.46
2017-11-12T22:31:34.946Z,87.18
2017-11-12T22:34:02.423Z,87.35
2017-11-12T22:36:29.895Z,87.49
2017-11-12T22:38:57.396Z,87.33
2017-11-12T22:41:24.865Z,87.68
2017-11-12T22:43:52.317Z,87.81
2017-11-12T22:46:19.820Z,88.33
2017-11-12T22:48:47.270Z,88.17
2017-11-12T22:51:14.749Z,89.29
2017-11-12T22:53:42.208Z,89.78
2017-11-12T22:56:09.673Z,89.23
2017-11-12T22:58:37.130Z,88.97
2017-11-12T23:01:04.621Z,89.81
2017-11-12T23:03:32.081Z,89.83
2017-11-12T23:05:59.569Z,88.89
2017-11-12T23:08:27.013Z,90.93
2017-11-12T23:10:54.515Z,91.56
2017-11-12T23:13:21.970Z,91.81
2017-11-12T23:15:49.428Z,91.86
2017-11-12T23:18:16.904Z,90.93
2017-11-12T23:20:44.346Z,90.35
2017-11-12T23:23:11.809Z,91.28
2017-11-12T23:25:39.286Z,90.74
2017-11-12T23:28:06.853Z,90.95
2017-11-12T23:30:34.310Z,90.85
2017-11-12T23:33:01.810Z,90.30
2017-11-12T23:35:29.265Z,89.99
2017-11-12T23:37:56.734Z,89.54
2017-11-12T23:40:24.210Z,89.92
2017-11-12T23:42:51.699Z,90.62
2017-11-12T23:45:19.245Z,90.96
2017-11-12T23:47:46.700Z,90.97
2017-11-12T23:50:14.270Z,90.70
2017-11-12T23:52:41.759Z,90.04
2017-11-12T23:55:09.242Z,89.98
2017-11-12T23:57:36.711Z,89.96
